Time;durP1;ratioP1;P1;durP2;ratioP2;P2;SDS_P1;SDS_P2;PMS_P1;PMS_P2;Temp;Humidity;BMP_temperature;BMP_pressure;BME280_temperature;BME280_humidity;BME280_pressure;Samples;Min_cycle;Max_cycle;Signal;HPM_P1;HPM_P2
2022/04/11 00:00:33;;;;;;;17.73;3.78;;;;;;;;;;4895373;29;20667;-69
2022/04/11 00:03:05;;;;;;;25.08;4.50;;;;;;;;;;4893944;29;20056;-68
2022/04/11 00:05:31;;;;;;;18.75;4.32;;;;;;;;;;4909872;29;20559;-68
2022/04/11 00:07:57;;;;;;;15.93;3.85;;;;;;;;;;4911639;29;20048;-67
2022/04/11 00:10:24;;;;;;;24.08;4.40;;;;;;;;;;4912147;29;20111;-67
2022/04/11 00:12:49;;;;;;;18.63;4.53;;;;;;;;;;4914985;29;20075;-66
2022/04/11 00:15:15;;;;;;;20.20;4.85;;;;;;;;;;4912729;29;20055;-68
2022/04/11 00:17:41;;;;;;;27.20;5.00;;;;;;;;;;4910768;29;20084;-67
2022/04/11 00:20:08;;;;;;;17.80;4.32;;;;;;;;;;4908839;29;20407;-65
2022/04/11 00:22:36;;;;;;;23.00;4.53;;;;;;;;;;4912161;29;20051;-66
2022/04/11 00:25:04;;;;;;;16.25;4.43;;;;;;;;;;4895275;29;20044;-69
2022/04/11 00:27:29;;;;;;;26.38;5.60;;;;;;;;;;4909723;29;20070;-66
2022/04/11 00:29:55;;;;;;;18.92;4.50;;;;;;;;;;4909179;29;20048;-68
2022/04/11 00:32:22;;;;;;;23.65;4.78;;;;;;;;;;4911152;29;20115;-70
2022/04/11 00:34:47;;;;;;;22.70;4.18;;;;;;;;;;4909690;29;20079;-65
2022/04/11 00:37:13;;;;;;;18.15;4.13;;;;;;;;;;4909021;29;20059;-67
2022/04/11 00:39:39;;;;;;;22.52;5.32;;;;;;;;;;4910802;29;20131;-67
2022/04/11 00:42:14;;;;;;;20.73;4.53;;;;;;;;;;4917525;29;20529;-68
2022/04/11 00:44:40;;;;;;;23.90;4.70;;;;;;;;;;4916072;29;20104;-66
2022/04/11 00:47:06;;;;;;;25.65;4.75;;;;;;;;;;4920216;29;20103;-66
2022/04/11 00:49:32;;;;;;;27.10;4.53;;;;;;;;;;4918512;29;20048;-67
2022/04/11 00:51:59;;;;;;;19.48;4.45;;;;;;;;;;4917215;29;20098;-66
2022/04/11 00:54:27;;;;;;;17.25;4.05;;;;;;;;;;4911817;29;20071;-67
2022/04/11 00:56:55;;;;;;;20.55;3.92;;;;;;;;;;4913522;29;20044;-67
2022/04/11 00:59:21;;;;;;;16.30;4.18;;;;;;;;;;4916003;29;20052;-67
2022/04/11 01:01:48;;;;;;;17.70;3.53;;;;;;;;;;4923885;29;20062;-67
2022/04/11 01:04:23;;;;;;;22.10;4.13;;;;;;;;;;4915066;29;20507;-68
2022/04/11 01:06:52;;;;;;;17.67;4.40;;;;;;;;;;4918308;29;20083;-66
2022/04/11 01:09:18;;;;;;;22.38;4.15;;;;;;;;;;4915686;29;20048;-67
2022/04/11 01:11:44;;;;;;;22.60;3.58;;;;;;;;;;4913045;29;20060;-67
2022/04/11 01:14:10;;;;;;;18.55;4.00;;;;;;;;;;4913436;29;20083;-66
2022/04/11 01:16:36;;;;;;;25.77;4.05;;;;;;;;;;4917849;29;20131;-67
2022/04/11 01:19:02;;;;;;;19.48;3.83;;;;;;;;;;4916692;29;20381;-67
2022/04/11 01:21:30;;;;;;;17.42;3.47;;;;;;;;;;4922227;29;20047;-66
2022/04/11 01:23:59;;;;;;;18.95;3.92;;;;;;;;;;4921409;29;20048;-65
2022/04/11 01:26:26;;;;;;;17.10;4.47;;;;;;;;;;4898263;29;20044;-67
2022/04/11 01:28:53;;;;;;;18.10;3.58;;;;;;;;;;4915957;29;20510;-68
2022/04/11 01:31:19;;;;;;;13.38;3.65;;;;;;;;;;4916779;29;20099;-67
2022/04/11 01:33:45;;;;;;;15.85;3.85;;;;;;;;;;4916744;29;20048;-66
2022/04/11 01:36:11;;;;;;;18.23;3.88;;;;;;;;;;4917413;29;20070;-69
2022/04/11 01:38:37;;;;;;;20.90;4.20;;;;;;;;;;4916441;29;20134;-67
2022/04/11 01:41:03;;;;;;;14.07;3.83;;;;;;;;;;4916942;29;20056;-68
2022/04/11 01:43:29;;;;;;;13.80;3.38;;;;;;;;;;4913675;29;20080;-68
2022/04/11 01:45:55;;;;;;;17.48;3.58;;;;;;;;;;4916615;29;20072;-67
2022/04/11 01:48:21;;;;;;;17.65;4.20;;;;;;;;;;4914355;29;20128;-67
2022/04/11 01:50:47;;;;;;;18.45;3.70;;;;;;;;;;4913519;29;20072;-68
2022/04/11 01:53:18;;;;;;;17.67;4.80;;;;;;;;;;4911708;29;20048;-69
2022/04/11 01:55:44;;;;;;;21.52;4.70;;;;;;;;;;4911645;29;20087;-66
2022/04/11 01:58:11;;;;;;;17.52;4.45;;;;;;;;;;4891791;29;20470;-67
2022/04/11 02:00:38;;;;;;;15.90;3.70;;;;;;;;;;4908921;29;20044;-67
2022/04/11 02:03:05;;;;;;;21.10;4.15;;;;;;;;;;4898790;29;20052;-67
2022/04/11 02:05:32;;;;;;;21.95;4.20;;;;;;;;;;4898174;29;20139;-69
2022/04/11 02:07:59;;;;;;;16.75;4.18;;;;;;;;;;4912014;29;20051;-67
2022/04/11 02:10:26;;;;;;;17.42;4.00;;;;;;;;;;4912542;29;20549;-67
2022/04/11 02:12:53;;;;;;;20.08;4.20;;;;;;;;;;4911874;29;20056;-66
2022/04/11 02:15:19;;;;;;;14.57;3.85;;;;;;;;;;4895341;29;20443;-67
2022/04/11 02:17:50;;;;;;;16.95;4.22;;;;;;;;;;4913619;29;20078;-67
2022/04/11 02:20:16;;;;;;;15.93;4.00;;;;;;;;;;4906599;29;20143;-66
2022/04/11 02:22:46;;;;;;;17.38;4.53;;;;;;;;;;4912626;29;20146;-66
2022/04/11 02:25:12;;;;;;;11.75;3.15;;;;;;;;;;4911981;29;20474;-68
2022/04/11 02:27:38;;;;;;;16.77;4.35;;;;;;;;;;4913213;29;20048;-68
2022/04/11 02:30:05;;;;;;;16.15;3.92;;;;;;;;;;4911858;29;20375;-66
2022/04/11 02:32:32;;;;;;;13.88;3.95;;;;;;;;;;4900014;29;20048;-66
2022/04/11 02:34:58;;;;;;;16.75;3.70;;;;;;;;;;4912723;29;20417;-67
2022/04/11 02:37:24;;;;;;;17.30;4.57;;;;;;;;;;4908724;29;20514;-66
2022/04/11 02:39:50;;;;;;;14.43;3.78;;;;;;;;;;4905702;29;20394;-67
2022/04/11 02:42:27;;;;;;;16.63;4.28;;;;;;;;;;4908297;29;20072;-66
2022/04/11 02:44:54;;;;;;;19.00;4.70;;;;;;;;;;4912012;29;20087;-68
2022/04/11 02:47:20;;;;;;;19.85;4.50;;;;;;;;;;4912701;29;20144;-69
2022/04/11 02:49:47;;;;;;;19.00;4.10;;;;;;;;;;4910946;29;20534;-67
2022/04/11 02:52:14;;;;;;;13.90;3.90;;;;;;;;;;4910537;29;20063;-67
2022/04/11 02:54:40;;;;;;;17.33;4.70;;;;;;;;;;4911496;29;20048;-67
2022/04/11 02:57:07;;;;;;;15.63;4.30;;;;;;;;;;4911803;29;20052;-67
2022/04/11 02:59:34;;;;;;;14.05;4.63;;;;;;;;;;4911327;29;20055;-66
2022/04/11 03:02:14;;;;;;;17.20;4.53;;;;;;;;;;4885779;29;20127;-65
2022/04/11 03:04:43;;;;;;;15.30;4.88;;;;;;;;;;4899608;29;20066;-67
2022/04/11 03:07:12;;;;;;;15.73;4.38;;;;;;;;;;4913217;29;20393;-67
2022/04/11 03:09:39;;;;;;;13.60;4.57;;;;;;;;;;4896078;29;20044;-66
2022/04/11 03:12:06;;;;;;;20.00;4.95;;;;;;;;;;4911679;29;20127;-65
2022/04/11 03:14:31;;;;;;;22.63;5.18;;;;;;;;;;4911980;29;20076;-67
2022/04/11 03:16:57;;;;;;;19.10;5.50;;;;;;;;;;4913175;29;20048;-65
2022/04/11 03:19:24;;;;;;;14.68;4.95;;;;;;;;;;4906030;29;20585;-67
2022/04/11 03:21:49;;;;;;;15.73;4.90;;;;;;;;;;4910120;29;20091;-67
2022/04/11 03:24:15;;;;;;;19.77;5.13;;;;;;;;;;4912914;29;20052;-65
2022/04/11 03:26:41;;;;;;;21.67;5.40;;;;;;;;;;4915123;29;20081;-67
2022/04/11 03:29:07;;;;;;;19.10;4.90;;;;;;;;;;4910552;29;20297;-66
2022/04/11 03:31:33;;;;;;;17.02;5.20;;;;;;;;;;4908772;29;20056;-67
2022/04/11 03:33:59;;;;;;;19.17;4.97;;;;;;;;;;4911776;29;20078;-67
2022/04/11 03:36:25;;;;;;;22.60;6.13;;;;;;;;;;4909221;29;20052;-67
2022/04/11 03:38:51;;;;;;;16.77;5.63;;;;;;;;;;4910294;29;20044;-67
2022/04/11 03:41:17;;;;;;;19.75;6.65;;;;;;;;;;4909194;29;20347;-65
2022/04/11 03:43:43;;;;;;;24.27;6.32;;;;;;;;;;4911099;29;20490;-66
2022/04/11 03:46:09;;;;;;;22.13;7.18;;;;;;;;;;4910322;29;20056;-67
2022/04/11 03:48:35;;;;;;;21.50;6.35;;;;;;;;;;4913277;29;20052;-67
2022/04/11 03:51:01;;;;;;;21.75;7.15;;;;;;;;;;4911690;29;20428;-68
2022/04/11 03:53:27;;;;;;;30.25;7.40;;;;;;;;;;4906927;29;20048;-65
2022/04/11 03:55:53;;;;;;;19.88;7.90;;;;;;;;;;4914417;29;20070;-66
2022/04/11 03:58:19;;;;;;;23.25;7.88;;;;;;;;;;4912125;29;20052;-67
2022/04/11 04:00:45;;;;;;;20.65;7.88;;;;;;;;;;4906849;29;20051;-67
2022/04/11 04:03:12;;;;;;;21.55;7.85;;;;;;;;;;4908345;29;20170;-67
2022/04/11 04:05:43;;;;;;;27.33;9.05;;;;;;;;;;4912419;29;20072;-66
2022/04/11 04:08:10;;;;;;;25.73;9.10;;;;;;;;;;4910446;29;20055;-69
2022/04/11 04:10:36;;;;;;;20.13;10.25;;;;;;;;;;4907237;29;20139;-66
2022/04/11 04:13:02;;;;;;;25.60;10.77;;;;;;;;;;4912531;29;20131;-65
2022/04/11 04:15:29;;;;;;;28.63;11.00;;;;;;;;;;4908300;29;20052;-67
2022/04/11 04:17:55;;;;;;;23.20;10.90;;;;;;;;;;4909367;29;20056;-67
2022/04/11 04:20:24;;;;;;;28.98;11.48;;;;;;;;;;4907178;29;20064;-65
2022/04/11 04:22:50;;;;;;;20.85;10.85;;;;;;;;;;4903417;29;20080;-66
2022/04/11 04:25:16;;;;;;;27.05;11.38;;;;;;;;;;4911386;29;20079;-67
2022/04/11 04:27:42;;;;;;;27.85;11.85;;;;;;;;;;4912339;29;20056;-66
2022/04/11 04:30:09;;;;;;;24.38;11.98;;;;;;;;;;4909770;29;20172;-66
2022/04/11 04:33:29;;;;;;;30.33;11.50;;;;;;;;;;4912262;29;20088;-66
2022/04/11 04:35:55;;;;;;;25.73;11.68;;;;;;;;;;4908357;29;20079;-72
2022/04/11 04:38:21;;;;;;;24.50;12.25;;;;;;;;;;4895152;29;20139;-67
2022/04/11 04:40:47;;;;;;;31.17;11.38;;;;;;;;;;4909868;29;20076;-68
2022/04/11 04:43:12;;;;;;;31.15;12.82;;;;;;;;;;4904435;29;20708;-67
2022/04/11 04:45:38;;;;;;;26.02;12.10;;;;;;;;;;4897707;29;20060;-67
2022/04/11 04:48:06;;;;;;;29.65;12.93;;;;;;;;;;4900061;29;20099;-67
2022/04/11 04:50:32;;;;;;;29.15;13.27;;;;;;;;;;4904840;29;20060;-67
2022/04/11 04:52:58;;;;;;;35.20;13.57;;;;;;;;;;4902665;29;20131;-66
2022/04/11 04:55:24;;;;;;;30.00;12.50;;;;;;;;;;4900172;29;20142;-66
2022/04/11 04:57:50;;;;;;;35.42;14.52;;;;;;;;;;4902021;29;20063;-67
2022/04/11 05:00:16;;;;;;;31.05;13.75;;;;;;;;;;4887585;29;20056;-64
2022/04/11 05:02:45;;;;;;;35.35;13.48;;;;;;;;;;4905594;29;20064;-66
2022/04/11 05:05:13;;;;;;;32.08;13.75;;;;;;;;;;4905563;29;20052;-67
2022/04/11 05:07:39;;;;;;;38.75;13.93;;;;;;;;;;4904559;29;20064;-66
2022/04/11 05:10:06;;;;;;;32.83;13.75;;;;;;;;;;4904329;29;20048;-66
2022/04/11 05:12:43;;;;;;;43.20;14.63;;;;;;;;;;4903785;29;20052;-68
2022/04/11 05:15:10;;;;;;;41.55;14.65;;;;;;;;;;4903334;29;20179;-66
2022/04/11 05:17:36;;;;;;;30.30;13.35;;;;;;;;;;4900401;29;20071;-67
2022/04/11 05:20:06;;;;;;;27.45;13.32;;;;;;;;;;4904653;29;20047;-67
2022/04/11 05:22:33;;;;;;;36.10;14.20;;;;;;;;;;4904143;29;20134;-68
2022/04/11 05:24:59;;;;;;;28.77;13.18;;;;;;;;;;4901226;29;20044;-70
2022/04/11 05:27:25;;;;;;;30.02;12.85;;;;;;;;;;4901231;29;20536;-68
2022/04/11 05:29:51;;;;;;;32.42;14.18;;;;;;;;;;4906120;29;20056;-68
2022/04/11 05:32:17;;;;;;;29.40;14.48;;;;;;;;;;4904881;29;20500;-66
2022/04/11 05:34:43;;;;;;;42.42;13.65;;;;;;;;;;4902069;29;20056;-66
2022/04/11 05:37:11;;;;;;;42.35;14.30;;;;;;;;;;4913254;29;20052;-66
2022/04/11 05:39:37;;;;;;;39.15;14.55;;;;;;;;;;4904045;29;20052;-67
2022/04/11 05:42:05;;;;;;;36.80;15.20;;;;;;;;;;4907581;29;20408;-66
2022/04/11 05:44:30;;;;;;;28.58;14.05;;;;;;;;;;4890477;29;20060;-70
2022/04/11 05:46:56;;;;;;;36.50;14.10;;;;;;;;;;4908191;29;20091;-69
2022/04/11 05:49:23;;;;;;;30.75;14.00;;;;;;;;;;4905213;29;20064;-66
2022/04/11 05:51:50;;;;;;;30.33;13.77;;;;;;;;;;4907424;29;20052;-67
2022/04/11 05:54:16;;;;;;;28.02;13.73;;;;;;;;;;4907733;29;21048;-66
2022/04/11 05:56:42;;;;;;;28.23;14.07;;;;;;;;;;4905903;29;20378;-67
2022/04/11 05:59:08;;;;;;;38.45;14.07;;;;;;;;;;4906679;29;20171;-67
2022/04/11 06:01:40;;;;;;;35.63;14.07;;;;;;;;;;4901250;29;20075;-67
2022/04/11 06:04:06;;;;;;;33.67;13.40;;;;;;;;;;4904914;29;20056;-68
2022/04/11 06:06:32;;;;;;;31.95;13.02;;;;;;;;;;4907564;29;20063;-68
2022/04/11 06:08:58;;;;;;;26.55;13.13;;;;;;;;;;4889913;29;20462;-68
2022/04/11 06:11:24;;;;;;;29.05;14.10;;;;;;;;;;4904567;29;20099;-66
2022/04/11 06:13:50;;;;;;;31.38;12.50;;;;;;;;;;4902610;29;20067;-68
2022/04/11 06:16:16;;;;;;;31.55;14.68;;;;;;;;;;4914133;29;20051;-68
2022/04/11 06:18:42;;;;;;;26.02;11.77;;;;;;;;;;4903958;29;20056;-67
2022/04/11 06:21:08;;;;;;;27.25;12.70;;;;;;;;;;4908530;29;20052;-67
2022/04/11 06:23:34;;;;;;;27.77;12.43;;;;;;;;;;4908291;29;20056;-67
2022/04/11 06:26:00;;;;;;;32.08;13.00;;;;;;;;;;4890244;29;20307;-70
2022/04/11 06:28:26;;;;;;;28.08;12.30;;;;;;;;;;4904138;29;20047;-67
2022/04/11 06:30:52;;;;;;;26.70;12.77;;;;;;;;;;4906371;29;20534;-68
2022/04/11 06:33:18;;;;;;;26.13;11.82;;;;;;;;;;4890805;29;20127;-70
2022/04/11 06:35:44;;;;;;;26.75;11.77;;;;;;;;;;4906619;29;20124;-68
2022/04/11 06:38:11;;;;;;;24.85;11.57;;;;;;;;;;4906166;29;20131;-67
2022/04/11 06:40:36;;;;;;;34.95;12.43;;;;;;;;;;4909257;29;20135;-68
2022/04/11 06:43:02;;;;;;;24.85;10.57;;;;;;;;;;4908358;29;20548;-67
2022/04/11 06:45:28;;;;;;;32.58;12.23;;;;;;;;;;4904249;29;20068;-71
2022/04/11 06:47:54;;;;;;;25.33;11.02;;;;;;;;;;4903679;29;20052;-65
2022/04/11 06:50:20;;;;;;;27.70;12.45;;;;;;;;;;4907793;29;20044;-66
2022/04/11 06:52:46;;;;;;;24.75;11.45;;;;;;;;;;4899785;29;20722;-69
2022/04/11 06:55:12;;;;;;;30.77;12.65;;;;;;;;;;4908087;29;20044;-64
2022/04/11 06:57:38;;;;;;;25.92;11.25;;;;;;;;;;4912698;29;20048;-64
2022/04/11 07:00:05;;;;;;;26.98;11.90;;;;;;;;;;4906028;29;20059;-66
2022/04/11 07:02:31;;;;;;;32.08;11.63;;;;;;;;;;4909081;29;20059;-64
2022/04/11 07:04:57;;;;;;;27.17;11.43;;;;;;;;;;4910750;29;20048;-63
2022/04/11 07:07:22;;;;;;;32.78;11.80;;;;;;;;;;4912006;29;20446;-63
2022/04/11 07:09:48;;;;;;;29.75;11.43;;;;;;;;;;4908226;29;20052;-64
2022/04/11 07:12:14;;;;;;;30.70;11.65;;;;;;;;;;4910977;29;20048;-65
2022/04/11 07:14:40;;;;;;;27.23;11.52;;;;;;;;;;4898940;29;20063;-70
2022/04/11 07:17:06;;;;;;;27.25;11.60;;;;;;;;;;4913149;29;20068;-65
2022/04/11 07:19:32;;;;;;;23.02;10.88;;;;;;;;;;4909435;29;20512;-64
2022/04/11 07:21:58;;;;;;;31.88;10.70;;;;;;;;;;4905744;29;20482;-63
2022/04/11 07:24:24;;;;;;;23.55;10.30;;;;;;;;;;4908077;29;20056;-63
2022/04/11 07:26:49;;;;;;;29.70;10.35;;;;;;;;;;4907736;29;20478;-63
2022/04/11 07:29:15;;;;;;;27.08;10.25;;;;;;;;;;4908191;29;20043;-64
2022/04/11 07:31:41;;;;;;;25.75;8.63;;;;;;;;;;4897322;29;20666;-64
2022/04/11 07:34:07;;;;;;;25.65;8.80;;;;;;;;;;4910523;29;20064;-62
2022/04/11 07:36:33;;;;;;;22.33;9.68;;;;;;;;;;4909255;29;20144;-63
2022/04/11 07:38:59;;;;;;;22.85;9.38;;;;;;;;;;4907414;29;20048;-63
2022/04/11 07:41:25;;;;;;;28.42;10.02;;;;;;;;;;4909682;29;20486;-64
2022/04/11 07:43:54;;;;;;;21.15;9.50;;;;;;;;;;4908627;29;20060;-68
2022/04/11 07:46:20;;;;;;;22.92;9.75;;;;;;;;;;4911319;29;20044;-64
2022/04/11 07:48:46;;;;;;;22.05;9.38;;;;;;;;;;4909846;29;20050;-62
2022/04/11 07:51:12;;;;;;;28.95;9.27;;;;;;;;;;4912266;29;20052;-64
2022/04/11 07:53:38;;;;;;;21.80;9.88;;;;;;;;;;4911225;29;20040;-66
2022/04/11 07:56:04;;;;;;;24.73;9.02;;;;;;;;;;4915252;29;20162;-63
2022/04/11 07:58:30;;;;;;;21.40;10.30;;;;;;;;;;4914535;29;20052;-64
2022/04/11 08:00:55;;;;;;;22.45;9.77;;;;;;;;;;4910189;29;20052;-63
2022/04/11 08:03:22;;;;;;;22.23;8.98;;;;;;;;;;4910865;29;20133;-63
2022/04/11 08:05:48;;;;;;;19.70;9.35;;;;;;;;;;4909779;29;20110;-64
2022/04/11 08:08:15;;;;;;;28.67;9.13;;;;;;;;;;4907615;29;20044;-65
2022/04/11 08:10:41;;;;;;;25.60;9.77;;;;;;;;;;4904355;29;20048;-65
2022/04/11 08:13:07;;;;;;;21.98;9.25;;;;;;;;;;4910704;29;20048;-64
2022/04/11 08:15:33;;;;;;;17.30;7.75;;;;;;;;;;4910065;29;20255;-69
2022/04/11 08:18:00;;;;;;;20.40;6.80;;;;;;;;;;4895666;29;20465;-66
2022/04/11 08:20:26;;;;;;;19.58;5.72;;;;;;;;;;4910200;29;20194;-64
2022/04/11 08:22:53;;;;;;;25.05;6.53;;;;;;;;;;4912487;29;20036;-63
2022/04/11 08:25:19;;;;;;;22.63;6.07;;;;;;;;;;4894992;29;20080;-68
2022/04/11 08:27:45;;;;;;;22.13;5.97;;;;;;;;;;4914949;29;20086;-65
2022/04/11 08:30:14;;;;;;;22.20;5.18;;;;;;;;;;4913647;29;20044;-63
2022/04/11 08:32:42;;;;;;;21.58;5.93;;;;;;;;;;4913431;29;20510;-64
2022/04/11 08:35:08;;;;;;;23.40;6.13;;;;;;;;;;4912789;29;20364;-65
2022/04/11 08:37:40;;;;;;;17.77;5.00;;;;;;;;;;4911889;29;20048;-67
2022/04/11 08:40:18;;;;;;;24.75;5.25;;;;;;;;;;4910773;29;20127;-69
2022/04/11 08:42:46;;;;;;;19.80;5.82;;;;;;;;;;4908384;29;20052;-64
2022/04/11 08:45:13;;;;;;;20.38;6.70;;;;;;;;;;4912707;29;20052;-63
2022/04/11 08:47:39;;;;;;;26.98;7.97;;;;;;;;;;4909379;29;20052;-68
2022/04/11 08:50:07;;;;;;;22.52;8.85;;;;;;;;;;4905035;29;20048;-68
2022/04/11 08:52:35;;;;;;;21.27;8.30;;;;;;;;;;4907833;29;20115;-68
2022/04/11 08:55:02;;;;;;;21.45;7.50;;;;;;;;;;4908375;29;20063;-66
2022/04/11 08:57:29;;;;;;;24.90;7.40;;;;;;;;;;4910560;29;20062;-71
2022/04/11 08:59:55;;;;;;;21.92;7.40;;;;;;;;;;4910183;29;20406;-66
2022/04/11 09:02:31;;;;;;;22.17;7.03;;;;;;;;;;4915648;29;20131;-66
2022/04/11 09:04:58;;;;;;;18.77;5.28;;;;;;;;;;4912827;29;20055;-64
2022/04/11 09:07:24;;;;;;;24.70;5.82;;;;;;;;;;4917768;29;20050;-63
2022/04/11 09:09:51;;;;;;;25.65;4.93;;;;;;;;;;4914264;29;20483;-64
2022/04/11 09:12:19;;;;;;;21.27;4.93;;;;;;;;;;4917925;29;20094;-63
2022/04/11 09:14:53;;;;;;;21.27;4.70;;;;;;;;;;4916241;29;20673;-64
2022/04/11 09:17:25;;;;;;;24.00;5.47;;;;;;;;;;4916256;29;20050;-65
2022/04/11 09:20:10;;;;;;;17.45;4.57;;;;;;;;;;4914021;29;20111;-65
2022/04/11 09:22:36;;;;;;;22.52;4.68;;;;;;;;;;4916417;29;20048;-67
2022/04/11 09:25:13;;;;;;;13.73;4.10;;;;;;;;;;4912032;29;20051;-71
2022/04/11 09:27:40;;;;;;;17.35;3.97;;;;;;;;;;4915990;29;20052;-69
2022/04/11 09:30:22;;;;;;;18.38;5.13;;;;;;;;;;4915696;29;20068;-68
2022/04/11 09:32:57;;;;;;;17.27;4.95;;;;;;;;;;4909999;29;20123;-68
2022/04/11 09:35:26;;;;;;;17.48;5.15;;;;;;;;;;4913376;29;20395;-68
2022/04/11 09:38:06;;;;;;;20.15;5.75;;;;;;;;;;4914151;29;20055;-69
2022/04/11 09:40:37;;;;;;;18.05;4.97;;;;;;;;;;4908358;29;20090;-69
2022/04/11 09:43:03;;;;;;;19.92;5.03;;;;;;;;;;4896748;29;20074;-69
2022/04/11 09:45:29;;;;;;;20.45;4.82;;;;;;;;;;4913835;29;20494;-67
2022/04/11 09:48:03;;;;;;;19.58;4.82;;;;;;;;;;4915791;29;20067;-69
2022/04/11 09:50:30;;;;;;;25.02;5.53;;;;;;;;;;4912011;29;20573;-68
2022/04/11 09:53:13;;;;;;;21.75;5.22;;;;;;;;;;4913285;29;20131;-69
2022/04/11 09:55:40;;;;;;;25.55;5.18;;;;;;;;;;4906833;29;20506;-68
2022/04/11 09:58:06;;;;;;;21.88;5.28;;;;;;;;;;4912914;29;20109;-69
2022/04/11 10:00:38;;;;;;;16.77;4.45;;;;;;;;;;4914596;29;20051;-70
2022/04/11 10:03:07;;;;;;;16.77;4.70;;;;;;;;;;4908770;29;20048;-72
2022/04/11 10:05:35;;;;;;;20.63;5.43;;;;;;;;;;4912392;29;20409;-68
2022/04/11 10:08:04;;;;;;;24.35;3.90;;;;;;;;;;4913921;29;20056;-68
2022/04/11 10:10:34;;;;;;;19.20;4.45;;;;;;;;;;4891793;29;20533;-67
2022/04/11 10:13:01;;;;;;;16.85;4.82;;;;;;;;;;4904923;29;20043;-68
2022/04/11 10:15:27;;;;;;;18.63;5.07;;;;;;;;;;4913862;29;20100;-70
2022/04/11 10:17:56;;;;;;;22.00;4.45;;;;;;;;;;4914087;29;20052;-69
2022/04/11 10:20:35;;;;;;;17.02;4.72;;;;;;;;;;4910901;29;20044;-69
2022/04/11 10:23:10;;;;;;;17.10;4.28;;;;;;;;;;4898782;29;20090;-72
2022/04/11 10:25:44;;;;;;;14.73;4.75;;;;;;;;;;4910915;29;20058;-70
2022/04/11 10:28:22;;;;;;;14.60;4.10;;;;;;;;;;4912660;29;20068;-70
2022/04/11 10:31:05;;;;;;;23.23;5.22;;;;;;;;;;4895295;29;20056;-70
2022/04/11 10:33:47;;;;;;;19.45;4.30;;;;;;;;;;4901964;29;20056;-69
2022/04/11 10:36:31;;;;;;;23.67;4.03;;;;;;;;;;4914160;29;20544;-68
2022/04/11 10:39:13;;;;;;;16.92;4.63;;;;;;;;;;4902484;29;20056;-67
2022/04/11 10:41:57;;;;;;;23.70;4.50;;;;;;;;;;4898343;29;20059;-68
2022/04/11 10:44:33;;;;;;;21.08;5.32;;;;;;;;;;4899580;29;20084;-69
2022/04/11 10:47:08;;;;;;;21.13;4.25;;;;;;;;;;4903460;29;20055;-70
2022/04/11 10:49:58;;;;;;;24.10;4.30;;;;;;;;;;4908714;29;20154;-70
2022/04/11 10:52:35;;;;;;;18.65;3.85;;;;;;;;;;4910995;29;20652;-68
2022/04/11 10:55:10;;;;;;;17.55;3.90;;;;;;;;;;4911356;29;20048;-69
2022/04/11 10:57:55;;;;;;;;;;;;;;;;;;4914374;29;20040;-66
2022/04/11 11:00:32;;;;;;;16.02;3.50;;;;;;;;;;4912151;29;19923;-69
2022/04/11 11:03:01;;;;;;;18.02;5.68;;;;;;;;;;4915654;29;20131;-69
2022/04/11 11:05:32;;;;;;;22.58;3.75;;;;;;;;;;4912020;29;20469;-69
2022/04/11 11:08:09;;;;;;;15.23;3.17;;;;;;;;;;4903318;29;20490;-67
2022/04/11 11:10:57;;;;;;;18.92;3.75;;;;;;;;;;4902699;29;20044;-70
2022/04/11 11:13:37;;;;;;;20.02;4.10;;;;;;;;;;4901392;29;20040;-68
2022/04/11 11:16:03;;;;;;;25.75;3.88;;;;;;;;;;4913357;29;20056;-69
2022/04/11 11:18:51;;;;;;;20.35;3.78;;;;;;;;;;4914959;29;20054;-69
2022/04/11 11:21:19;;;;;;;19.48;3.67;;;;;;;;;;4900432;29;20072;-68
2022/04/11 11:24:12;;;;;;;16.08;3.20;;;;;;;;;;4912416;29;20048;-70
2022/04/11 11:26:57;;;;;;;19.98;3.80;;;;;;;;;;4910073;29;20052;-69
2022/04/11 11:29:29;;;;;;;16.85;3.65;;;;;;;;;;4903389;29;20056;-68
2022/04/11 11:31:57;;;;;;;20.33;3.20;;;;;;;;;;4901888;29;20494;-68
2022/04/11 11:34:26;;;;;;;19.58;3.03;;;;;;;;;;4901934;29;20171;-70
2022/04/11 11:37:03;;;;;;;18.70;3.47;;;;;;;;;;4905518;29;20056;-67
2022/04/11 11:39:30;;;;;;;12.50;2.80;;;;;;;;;;4910884;29;20135;-68
2022/04/11 11:42:05;;;;;;;19.95;3.40;;;;;;;;;;4911706;29;20095;-71
2022/04/11 11:44:32;;;;;;;15.80;3.28;;;;;;;;;;4891592;29;20447;-68
2022/04/11 11:47:00;;;;;;;13.60;3.17;;;;;;;;;;4904818;29;20072;-71
2022/04/11 11:49:28;;;;;;;14.65;2.63;;;;;;;;;;4908139;29;20516;-69
2022/04/11 11:51:55;;;;;;;17.75;3.20;;;;;;;;;;4907226;29;20278;-70
2022/04/11 11:54:39;;;;;;;16.05;3.45;;;;;;;;;;4894472;29;20510;-69
2022/04/11 11:57:17;;;;;;;18.45;3.80;;;;;;;;;;4910347;29;20142;-69
2022/04/11 12:00:01;;;;;;;16.52;3.10;;;;;;;;;;4910887;29;20377;-68
2022/04/11 12:05:24;;;;;;;11.80;2.60;;;;;;;;;;4911601;29;20498;-68
2022/04/11 12:08:13;;;;;;;11.60;2.75;;;;;;;;;;4906728;29;20107;-70
2022/04/11 12:10:47;;;;;;;11.65;2.03;;;;;;;;;;4893129;29;20071;-68
2022/04/11 12:13:23;;;;;;;12.80;2.35;;;;;;;;;;4893004;29;20086;-68
2022/04/11 12:15:49;;;;;;;15.20;2.72;;;;;;;;;;4911432;29;20103;-69
2022/04/11 12:18:15;;;;;;;14.40;3.25;;;;;;;;;;4898765;29;20051;-68
2022/04/11 12:20:43;;;;;;;17.98;3.38;;;;;;;;;;4907814;29;20060;-68
2022/04/11 12:23:11;;;;;;;13.20;2.60;;;;;;;;;;4911113;29;20251;-69
2022/04/11 12:25:42;;;;;;;14.75;3.03;;;;;;;;;;4911565;29;20596;-69
2022/04/11 12:28:22;;;;;;;13.25;2.25;;;;;;;;;;4911703;29;20147;-69
2022/04/11 12:31:12;;;;;;;15.27;2.30;;;;;;;;;;4908030;29;20479;-67
2022/04/11 12:33:41;;;;;;;16.52;2.33;;;;;;;;;;4902120;29;20477;-67
2022/04/11 12:36:16;;;;;;;16.70;2.53;;;;;;;;;;4910709;29;20508;-70
2022/04/11 12:38:51;;;;;;;17.25;2.85;;;;;;;;;;4911395;29;20099;-69
2022/04/11 12:41:29;;;;;;;11.52;2.30;;;;;;;;;;4909531;29;20052;-71
2022/04/11 12:44:00;;;;;;;15.68;2.33;;;;;;;;;;4908357;29;20102;-69
2022/04/11 12:46:27;;;;;;;11.52;2.15;;;;;;;;;;4909387;29;20490;-69
2022/04/11 12:48:59;;;;;;;9.30;2.40;;;;;;;;;;4911174;29;20207;-68
2022/04/11 12:51:29;;;;;;;10.02;2.00;;;;;;;;;;4901481;29;20391;-68
2022/04/11 12:54:12;;;;;;;9.93;2.25;;;;;;;;;;4908106;29;20051;-68
2022/04/11 12:56:44;;;;;;;9.82;2.00;;;;;;;;;;4902274;29;20461;-69
2022/04/11 12:59:11;;;;;;;10.38;2.30;;;;;;;;;;4902498;29;20063;-68
2022/04/11 13:01:50;;;;;;;13.75;2.60;;;;;;;;;;4909356;29;20569;-68
2022/04/11 13:04:16;;;;;;;10.18;2.05;;;;;;;;;;4900209;29;20049;-67
2022/04/11 13:06:42;;;;;;;8.27;2.35;;;;;;;;;;4909047;29;20059;-67
2022/04/11 13:09:08;;;;;;;8.93;2.03;;;;;;;;;;4908297;29;20402;-67
2022/04/11 13:11:44;;;;;;;9.75;2.47;;;;;;;;;;4906026;29;20083;-69
2022/04/11 13:14:11;;;;;;;11.07;1.67;;;;;;;;;;4910178;29;20154;-70
2022/04/11 13:19:22;;;;;;;7.85;1.67;;;;;;;;;;4906965;29;20128;-70
2022/04/11 13:21:48;;;;;;;11.13;2.22;;;;;;;;;;4911352;29;20520;-70
2022/04/11 13:24:15;;;;;;;10.32;2.25;;;;;;;;;;4902254;29;20052;-71
2022/04/11 13:26:42;;;;;;;12.20;2.42;;;;;;;;;;4908712;29;20055;-70
2022/04/11 13:29:08;;;;;;;9.52;2.08;;;;;;;;;;4911145;29;20048;-68
2022/04/11 13:31:34;;;;;;;7.60;1.95;;;;;;;;;;4908950;29;20071;-68
2022/04/11 13:34:01;;;;;;;9.45;1.85;;;;;;;;;;4909860;29;20524;-69
2022/04/11 13:36:27;;;;;;;9.02;1.98;;;;;;;;;;4896678;29;20049;-67
2022/04/11 13:38:53;;;;;;;6.85;1.83;;;;;;;;;;4890609;29;20144;-68
2022/04/11 13:41:19;;;;;;;9.07;1.90;;;;;;;;;;4893000;29;20051;-69
2022/04/11 13:43:45;;;;;;;11.13;2.00;;;;;;;;;;4892739;29;20522;-70
2022/04/11 13:46:11;;;;;;;9.13;1.88;;;;;;;;;;4893067;29;20048;-69
2022/04/11 13:48:37;;;;;;;9.32;1.73;;;;;;;;;;4894225;29;20052;-68
2022/04/11 13:51:03;;;;;;;9.43;2.40;;;;;;;;;;4896459;29;20104;-68
2022/04/11 13:53:29;;;;;;;8.98;2.00;;;;;;;;;;4895140;29;20511;-69
2022/04/11 13:55:56;;;;;;;7.93;1.83;;;;;;;;;;4895114;29;20051;-68
2022/04/11 13:58:22;;;;;;;12.80;2.42;;;;;;;;;;4895144;29;20051;-71
2022/04/11 14:00:49;;;;;;;9.30;2.08;;;;;;;;;;4894992;29;20754;-69
2022/04/11 14:03:15;;;;;;;7.38;1.60;;;;;;;;;;4895041;29;20044;-69
2022/04/11 14:05:42;;;;;;;8.30;2.10;;;;;;;;;;4893837;29;20052;-68
2022/04/11 14:08:10;;;;;;;8.27;2.17;;;;;;;;;;4893846;29;20060;-69
2022/04/11 14:10:36;;;;;;;9.45;1.80;;;;;;;;;;4894706;29;20067;-71
2022/04/11 14:13:03;;;;;;;8.27;2.10;;;;;;;;;;4896184;29;20156;-69
2022/04/11 14:15:29;;;;;;;6.32;1.63;;;;;;;;;;4893218;29;20041;-70
2022/04/11 14:17:56;;;;;;;9.25;2.33;;;;;;;;;;4892854;29;20052;-67
2022/04/11 14:20:22;;;;;;;14.10;2.22;;;;;;;;;;4894217;29;20120;-69
2022/04/11 14:22:48;;;;;;;10.32;2.53;;;;;;;;;;4894950;29;20044;-69
2022/04/11 14:25:15;;;;;;;12.48;2.83;;;;;;;;;;4895980;29;20281;-72
2022/04/11 14:27:41;;;;;;;16.88;2.22;;;;;;;;;;4891360;29;20431;-69
2022/04/11 14:30:07;;;;;;;12.25;2.40;;;;;;;;;;4894054;29;20503;-70
2022/04/11 14:32:34;;;;;;;11.15;2.33;;;;;;;;;;4893287;29;20517;-70
2022/04/11 14:35:00;;;;;;;11.25;2.65;;;;;;;;;;4901104;29;20085;-69
2022/04/11 14:37:26;;;;;;;12.27;1.92;;;;;;;;;;4911989;29;20052;-72
2022/04/11 14:39:52;;;;;;;14.70;2.42;;;;;;;;;;4911533;29;20129;-70
2022/04/11 14:42:18;;;;;;;11.45;2.13;;;;;;;;;;4910520;29;20052;-70